CW2939 Malaga ES current weather conditions

sailwx.info

Wind from 176

Air temperature 7.8° C
Dewpoint 6.6° C

Last reported at 2020-Jan-21 22:59 UTC.
Time now 2020-Jan-21 23:36 UTC

Location: N 36°52' W 004°09'.
View on Google Maps.

See reports from other nearby stations

  
Tides and Currents Weather Stations Pressure Air Temp Water Temp Dewpoint Dewpoint Depression Visibility Wind Speed Wind Dir Waves Ship Positions
date/time (UTC)wind fromknots sea level pressurealtimeterstation pressurevisibilityair tempwater tempwave heightnotes
2020-Jan-21 22:59 176 7.8
2020-Jan-21 22:49 176 2 gusting 5 7.8
2020-Jan-21 22:44 178 2 gusting 5 7.8
2020-Jan-21 22:24 177 2 gusting 6 7.8
2020-Jan-21 21:59 173 1 gusting 5 7.8
2020-Jan-21 21:49 145 5 gusting 7 7.8
2020-Jan-21 21:44 134 7 gusting 10 7.8
2020-Jan-21 21:34 125 7 gusting 10 7.8
2020-Jan-21 21:29 135 5 gusting 7 7.8
2020-Jan-21 21:24 148 8.3
2020-Jan-21 21:14 146 1 gusting 6 8.3
2020-Jan-21 20:59 210 8.3
2020-Jan-21 20:54 210 8.3
2020-Jan-21 20:49 210 0 gusting 4 8.3
2020-Jan-21 20:39 161 8.3
2020-Jan-21 20:29 160 8.3
2020-Jan-21 20:19 160 8.3
2020-Jan-21 20:14 158 0 gusting 2 8.3
2020-Jan-21 20:04 154 0 gusting 6 8.3
2020-Jan-21 19:49 138 3 gusting 6 8.9
2020-Jan-21 19:44 179 0 gusting 2 8.9
2020-Jan-21 19:39 180 0 gusting 6 8.9
2020-Jan-21 19:34 152 3 gusting 6 8.9
2020-Jan-21 19:29 144 1 gusting 8 8.9
2020-Jan-21 19:24 157 3 gusting 6 8.9
2020-Jan-21 19:19 148 5 gusting 7 8.9
2020-Jan-21 19:09 143 3 gusting 7 8.9
2020-Jan-21 18:59 148 7 gusting 13 8.9
2020-Jan-21 18:54 139 6 gusting 13 9.4
2020-Jan-21 18:44 132 8 gusting 12 9.4
2020-Jan-21 18:34 136 7 gusting 10 9.4
2020-Jan-21 18:29 135 6 gusting 10 9.4
2020-Jan-21 18:24 133 3 gusting 8 9.4
2020-Jan-21 18:19 133 4 gusting 8 9.4
2020-Jan-21 18:14 138 6 gusting 10 10.0
2020-Jan-21 18:09 141 6 gusting 10 10.0
2020-Jan-21 18:04 153 4 gusting 7 10.0
2020-Jan-21 17:59 143 5 gusting 7 10.0
2020-Jan-21 17:54 157 0 gusting 4 10.0
2020-Jan-21 17:49 157 0 gusting 5 10.0
2020-Jan-21 17:44 153 1 gusting 5 10.0
2020-Jan-21 17:39 153 1 gusting 4 10.0
2020-Jan-21 17:34 153 4 gusting 6 10.0
2020-Jan-21 17:19 146 3 gusting 6 10.0
2020-Jan-21 17:09 159 2 gusting 6 10.0
2020-Jan-21 17:04 157 2 gusting 5 10.0
2020-Jan-21 16:59 153 2 gusting 5 10.0
2020-Jan-21 16:54 155 4 gusting 6 10.0
2020-Jan-21 16:49 151 3 gusting 6 10.0
2020-Jan-21 16:24 154 6 gusting 10 10.6
2020-Jan-21 16:19 134 4 gusting 10 10.6
2020-Jan-21 16:14 131 5 gusting 6 10.6
2020-Jan-21 16:09 147 3 gusting 6 11.1
2020-Jan-21 16:04 133 3 gusting 7 11.1
2020-Jan-21 15:49 146 2 gusting 4 11.1
2020-Jan-21 15:44 150 2 gusting 5 11.1
2020-Jan-21 15:39 136 1 gusting 8 11.1
2020-Jan-21 15:34 135 2 gusting 6 11.1
2020-Jan-21 15:29 147 6 gusting 10 11.1
2020-Jan-21 15:24 141 5 gusting 13 11.1
2020-Jan-21 15:14 143 5 gusting 8 11.1
2020-Jan-21 15:09 146 6 gusting 11 11.1
2020-Jan-21 15:04 137 4 gusting 10 11.1
2020-Jan-21 14:59 145 4 gusting 10 11.1
2020-Jan-21 14:39 139 6 gusting 10 11.1
2020-Jan-21 14:34 151 6 gusting 10 11.1
2020-Jan-21 14:29 145 7 gusting 11 11.1
2020-Jan-21 14:14 158 5 gusting 10 11.1
2020-Jan-21 14:04 141 6 gusting 11 11.1
2020-Jan-21 13:59 151 6 gusting 11 11.7
2020-Jan-21 13:54 147 7 gusting 13 11.7
2020-Jan-21 13:39 137 5 gusting 8 11.7
2020-Jan-21 13:29 152 6 gusting 11 12.2
2020-Jan-21 13:19 061 1 gusting 4 12.8
2020-Jan-21 13:04 256 3 gusting 5 12.8
2020-Jan-21 12:59 076 1 gusting 2 12.8
2020-Jan-21 12:49 073 1 gusting 4 13.3
2020-Jan-21 12:44 069 0 gusting 2 13.3
2020-Jan-21 12:39 065 1 gusting 4 13.3
2020-Jan-21 12:34 065 1 gusting 2 12.8
2020-Jan-21 12:29 065 1 gusting 2 12.8
2020-Jan-21 12:24 065 0 gusting 2 12.8
2020-Jan-21 12:19 064 12.8
2020-Jan-21 12:09 064 0 gusting 2 12.8
2020-Jan-21 12:04 064 12.8
2020-Jan-21 11:54 063 2 gusting 6 13.9
2020-Jan-21 11:49 058 1 gusting 2 14.4
2020-Jan-21 11:44 057 2 gusting 4 15.0
2020-Jan-21 11:39 053 0 gusting 2 15.6
2020-Jan-21 11:34 053 16.1
2020-Jan-21 11:29 053 1 gusting 2 15.6
2020-Jan-21 11:24 053 1 gusting 5 15.6
2020-Jan-21 11:19 117 15.0
2020-Jan-21 11:14 125 1 gusting 2 14.4
2020-Jan-21 11:09 132 1 gusting 5 14.4
2020-Jan-21 11:04 138 0 gusting 2 14.4
2020-Jan-21 10:54 142 12.8
2020-Jan-21 10:49 141 1 gusting 5 12.2
2020-Jan-21 10:44 138 11.7
2020-Jan-21 10:39 138 0 gusting 5 11.7
2020-Jan-21 10:29 136 11.7
2020-Jan-21 10:24 135 11.1
2020-Jan-21 10:19 135 11.1
2020-Jan-21 10:09 130 1 gusting 4 11.1
2020-Jan-21 10:04 121 11.1
2020-Jan-21 09:59 119 11.1
2020-Jan-21 09:54 119 0 gusting 4 11.7
2020-Jan-21 09:49 118 2 gusting 2 11.7
2020-Jan-21 09:44 117 1 gusting 4 11.7
2020-Jan-21 09:34 132 4 gusting 8 12.8
2020-Jan-21 09:29 115 6 gusting 10 14.4
2020-Jan-21 09:24 136 2 gusting 6 15.0
2020-Jan-21 09:19 134 15.6
2020-Jan-21 09:09 134 0 gusting 2 14.4
2020-Jan-21 09:04 126 13.9
2020-Jan-21 08:59 126 12.8
2020-Jan-21 08:54 126 11.7
2020-Jan-21 08:49 126 11.1
2020-Jan-21 08:39 126 10.0
2020-Jan-21 08:34 126 4 gusting 6 9.4
2020-Jan-21 08:29 062 1 gusting 2 9.4
2020-Jan-21 08:19 059 2 gusting 4 10.0
2020-Jan-21 08:09 342 7 gusting 13 9.4
2020-Jan-21 08:04 308 4 gusting 8 9.4
2020-Jan-21 07:59 010 2 gusting 6 9.4
2020-Jan-21 07:54 051 2 gusting 4 10.0
2020-Jan-21 07:49 051 10.0
2020-Jan-21 07:44 049 0 gusting 10 10.0
2020-Jan-21 07:39 025 6 gusting 12 10.0
2020-Jan-21 07:29 047 1 gusting 4 10.0
2020-Jan-21 07:24 059 2 gusting 11 10.0
2020-Jan-21 07:19 330 9 gusting 13 10.0
2020-Jan-21 07:14 328 13 gusting 21 10.0
2020-Jan-21 07:09 324 14 gusting 20 10.0
2020-Jan-21 06:54 323 6 gusting 12 10.0
2020-Jan-21 06:49 321 6 gusting 10 10.0
2020-Jan-21 06:44 337 2 gusting 12 10.0
2020-Jan-21 06:29 061 1 gusting 4 9.4
2020-Jan-21 06:24 034 3 gusting 10 9.4
2020-Jan-21 06:19 027 6 gusting 15 9.4
2020-Jan-21 06:14 9.4
2020-Jan-21 06:09 049 5 gusting 13 9.4
2020-Jan-21 05:59 341 8 gusting 13 9.4
2020-Jan-21 05:54 357 5 gusting 10 9.4
2020-Jan-21 05:44 027 7 gusting 13 9.4
2020-Jan-21 05:39 014 6 gusting 10 9.4
2020-Jan-21 05:19 044 0 gusting 10 9.4
2020-Jan-21 05:14 019 3 gusting 13 9.4
2020-Jan-21 05:04 076 6 gusting 13 9.4
2020-Jan-21 04:59 058 8 gusting 12 9.4
2020-Jan-21 04:49 041 7 gusting 18 9.4
2020-Jan-21 04:44 053 7 gusting 15 9.4
2020-Jan-21 04:39 039 11 gusting 18 9.4
2020-Jan-21 04:34 068 9 gusting 19 8.9
2020-Jan-21 04:29 055 7 gusting 13 8.9
2020-Jan-21 04:24 020 6 gusting 13 8.9
2020-Jan-21 04:19 046 6 gusting 12 8.9
2020-Jan-21 04:09 062 5 gusting 12 8.9
2020-Jan-21 04:04 069 7 gusting 13 8.9
2020-Jan-21 03:59 039 7 gusting 12 8.9
2020-Jan-21 03:54 037 5 gusting 10 8.9
2020-Jan-21 03:44 035 6 gusting 14 8.9
2020-Jan-21 03:39 050 5 gusting 12 8.9
2020-Jan-21 03:34 048 6 gusting 13 8.9
2020-Jan-21 03:29 057 7 gusting 13 8.9
2020-Jan-21 03:24 050 5 gusting 13 8.9
2020-Jan-21 03:19 065 2 gusting 12 8.9
2020-Jan-21 03:14 046 6 gusting 11 8.9
2020-Jan-21 03:09 055 8 gusting 14 8.9
2020-Jan-21 03:04 079 8 gusting 15 8.9
2020-Jan-21 02:49 039 7 gusting 17 8.9
2020-Jan-21 02:39 018 9 gusting 19 8.9
2020-Jan-21 02:29 023 11 gusting 21 8.9
2020-Jan-21 02:24 035 9 gusting 22 8.9
2020-Jan-21 02:14 027 13 gusting 25 8.9
2020-Jan-21 02:09 036 14 gusting 22 8.9
2020-Jan-21 02:04 036 11 gusting 22 8.9
2020-Jan-21 01:54 030 15 gusting 26 8.9
2020-Jan-21 01:44 032 11 gusting 19 8.9
2020-Jan-21 01:34 025 12 gusting 19 8.9
2020-Jan-21 01:29 039 9 gusting 26 8.9
2020-Jan-21 01:24 044 12 gusting 25 8.9
2020-Jan-21 01:19 029 8 gusting 17 8.3
2020-Jan-21 01:14 017 8 gusting 22 8.3
2020-Jan-21 01:09 033 10 gusting 18 8.3
2020-Jan-21 01:04 026 8 gusting 14 8.3
2020-Jan-21 00:59 032 8 gusting 17 8.3
2020-Jan-21 00:54 048 7 gusting 15 8.3
2020-Jan-21 00:49 046 7 gusting 17 8.3
2020-Jan-21 00:44 047 10 gusting 18 8.3
2020-Jan-21 00:29 042 7 gusting 17 8.3
2020-Jan-21 00:19 040 4 gusting 15 8.3
2020-Jan-21 00:14 011 6 gusting 15 8.3
2020-Jan-21 00:09 025 3 gusting 8 8.3
2020-Jan-21 00:04 051 7 gusting 14 8.9
2020-Jan-20 23:54 069 9 gusting 17 8.9
2020-Jan-20 23:49 049 10 gusting 18 8.9
2020-Jan-20 23:34 052 8 gusting 15 8.9
2020-Jan-20 23:29 057 10 gusting 18 8.9
2020-Jan-20 23:24 048 11 gusting 15 8.9
2020-Jan-20 23:19 064 11 gusting 17 8.9
2020-Jan-20 23:14 046 9 gusting 17 8.9
2020-Jan-20 23:09 052 10 gusting 21 8.9
2020-Jan-20 23:04 044 10 gusting 17 8.9
2020-Jan-20 22:59 048 8 gusting 15 8.9
2020-Jan-20 22:54 043 10 gusting 17 8.9
2020-Jan-20 22:49 040 7 gusting 14 8.9
2020-Jan-20 22:44 034 10 gusting 18 8.9
2020-Jan-20 22:39 040 9 gusting 14 8.9
2020-Jan-20 22:34 058 8 gusting 17 8.9
2020-Jan-20 22:29 056 11 gusting 18 8.9
2020-Jan-20 22:24 032 10 gusting 17 8.9
2020-Jan-20 22:19 048 8 gusting 17 8.9
2020-Jan-20 22:14 053 7 gusting 17 8.9
2020-Jan-20 22:04 048 7 gusting 13 8.9
2020-Jan-20 21:59 040 4 gusting 11 8.9
2020-Jan-20 21:54 057 5 gusting 11 8.9
2020-Jan-20 21:44 052 6 gusting 11 8.9
2020-Jan-20 21:39 048 6 gusting 11 8.9
2020-Jan-20 21:29 051 5 gusting 10 8.9
2020-Jan-20 21:24 050 9 gusting 13 8.9
2020-Jan-20 21:19 055 7 gusting 13 8.9
2020-Jan-20 21:14 046 8 gusting 13 8.9
2020-Jan-20 21:09 060 6 gusting 8 8.9
2020-Jan-20 21:04 052 6 gusting 11 8.9
2020-Jan-20 20:44 040 9 gusting 17 8.9
2020-Jan-20 20:34 042 7 gusting 15 8.9
2020-Jan-20 20:24 044 6 gusting 14 8.9
2020-Jan-20 20:19 038 6 gusting 15 8.9
2020-Jan-20 20:04 031 6 gusting 13 9.4
2020-Jan-20 19:59 041 8 gusting 14 9.4
2020-Jan-20 19:54 041 8 gusting 15 9.4
2020-Jan-20 19:49 018 7 gusting 12 9.4
2020-Jan-20 19:44 012 3 gusting 12 9.4
2020-Jan-20 19:39 065 2 gusting 19 9.4
2020-Jan-20 19:34 036 6 gusting 14 9.4
2020-Jan-20 19:24 042 4 gusting 11 9.4
2020-Jan-20 19:19 068 7 gusting 14 9.4
2020-Jan-20 19:14 043 7 gusting 13 9.4
2020-Jan-20 19:09 053 9 gusting 18 9.4
2020-Jan-20 19:04 038 11 gusting 19 9.4
2020-Jan-20 18:59 039 13 gusting 20 9.4
2020-Jan-20 18:54 041 12 gusting 27 9.4
2020-Jan-20 18:49 055 12 gusting 18 9.4
2020-Jan-20 18:44 024 10 gusting 18 9.4
2020-Jan-20 18:39 035 8 gusting 15 9.4
2020-Jan-20 18:34 035 8 gusting 14 9.4
2020-Jan-20 18:29 023 4 gusting 13 9.4
2020-Jan-20 18:24 348 6 gusting 17 9.4
2020-Jan-20 18:19 032 6 gusting 17 9.4
2020-Jan-20 18:14 017 3 gusting 12 9.4
2020-Jan-20 18:09 057 8 gusting 15 9.4
2020-Jan-20 18:04 038 6 gusting 13 9.4
2020-Jan-20 17:59 018 6 gusting 12 9.4
2020-Jan-20 17:54 354 8 gusting 11 9.4
2020-Jan-20 17:44 050 0 gusting 5 9.4
2020-Jan-20 17:39 073 3 gusting 6 9.4
2020-Jan-20 17:34 062 4 gusting 10 9.4
2020-Jan-20 17:29 046 6 gusting 13 10.0
2020-Jan-20 17:14 027 4 gusting 12 10.0
2020-Jan-20 17:09 040 5 gusting 12 10.0
2020-Jan-20 17:04 041 6 gusting 14 10.0
2020-Jan-20 16:59 035 6 gusting 10 10.0
2020-Jan-20 16:54 038 3 gusting 10 9.4
2020-Jan-20 16:49 049 4 gusting 11 9.4
2020-Jan-20 16:44 027 0 gusting 6 10.0
2020-Jan-20 16:39 032 0 gusting 1 10.0
2020-Jan-20 16:34 024 10.0
2020-Jan-20 16:19 023 2 gusting 5 10.0
2020-Jan-20 16:14 013 0 gusting 8 10.0
2020-Jan-20 16:09 352 1 gusting 8 10.0
2020-Jan-20 15:54 134 3 gusting 4 10.0
2020-Jan-20 15:49 136 4 gusting 6 10.0
2020-Jan-20 15:44 141 5 gusting 7 10.0
2020-Jan-20 15:34 354 3 gusting 8 10.6
2020-Jan-20 15:29 052 4 gusting 8 10.6
2020-Jan-20 15:09 038 6 gusting 12 10.6
2020-Jan-20 15:04 011 5 gusting 13 10.6
2020-Jan-20 14:49 055 2 gusting 17 10.6
2020-Jan-20 14:44 036 9 gusting 17 10.6
2020-Jan-20 14:09 032 6 gusting 17 9.4
2020-Jan-20 14:04 052 5 gusting 17 9.4
2020-Jan-20 13:54 030 8 gusting 21 9.4
2020-Jan-20 13:49 044 11 gusting 19 9.4
2020-Jan-20 13:39 038 11 gusting 18 9.4
2020-Jan-20 13:24 042 11 gusting 19 9.4
2020-Jan-20 13:19 048 11 gusting 20 9.4
2020-Jan-20 13:09 039 13 gusting 22 9.4
2020-Jan-20 12:59 053 12 gusting 21 8.9
2020-Jan-20 12:54 043 9 gusting 20 8.9
2020-Jan-20 12:49 045 13 gusting 22 8.9
2020-Jan-20 12:39 047 13 gusting 26 8.3
2020-Jan-20 12:34 051 12 gusting 21 8.3
2020-Jan-20 12:29 046 12 gusting 20 8.3
2020-Jan-20 12:24 043 15 gusting 22 8.3
2020-Jan-20 12:19 044 16 gusting 25 8.3
2020-Jan-20 12:09 042 8 gusting 22 8.3
2020-Jan-20 11:54 039 11 gusting 26 8.3
2020-Jan-20 11:49 051 15 gusting 30 8.3
2020-Jan-20 11:39 054 12 gusting 25 8.3
2020-Jan-20 11:29 040 8 gusting 20 8.3
2020-Jan-20 11:24 036 9 gusting 18 8.3
2020-Jan-20 11:19 019 12 gusting 18 8.3
2020-Jan-20 11:04 047 8 gusting 24 8.3
2020-Jan-20 10:54 330 7 gusting 15 8.3
2020-Jan-20 10:44 049 11 gusting 17 8.3
2020-Jan-20 10:34 003 7 gusting 17 8.3
2020-Jan-20 10:24 017 13 gusting 22 8.3
2020-Jan-20 10:14 017 11 gusting 19 8.3
2020-Jan-20 10:09 007 11 gusting 25 8.3
2020-Jan-20 10:04 020 12 gusting 22 8.3
2020-Jan-20 09:54 065 12 gusting 18 8.3
2020-Jan-20 09:49 033 12 gusting 22 8.3
2020-Jan-20 09:44 035 11 gusting 22 7.8
2020-Jan-20 09:34 052 11 gusting 22 7.8
2020-Jan-20 09:29 044 8 gusting 22 7.8
2020-Jan-20 09:19 062 13 gusting 21 7.8
2020-Jan-20 09:09 051 12 gusting 24 7.8
2020-Jan-20 09:04 032 10 gusting 24 7.8
2020-Jan-20 08:59 028 9 gusting 25 7.8
2020-Jan-20 08:54 015 10 gusting 17 7.8
2020-Jan-20 08:44 038 8 gusting 22 7.8
2020-Jan-20 08:34 012 13 gusting 25 7.2
2020-Jan-20 08:29 014 6 gusting 17 7.2
2020-Jan-20 08:19 030 10 gusting 17 7.2
2020-Jan-20 08:04 043 7 gusting 19 7.2
2020-Jan-20 07:59 045 6 gusting 15 7.2
2020-Jan-20 07:54 027 9 gusting 14 7.2
2020-Jan-20 07:49 020 8 gusting 17 7.2
2020-Jan-20 07:44 019 10 gusting 21 7.2
2020-Jan-20 07:39 034 7 gusting 21 7.2
2020-Jan-20 07:29 026 11 gusting 26 7.2
2020-Jan-20 07:24 028 6 gusting 19 7.2
2020-Jan-20 07:14 019 11 gusting 22 7.2
2020-Jan-20 06:59 032 10 gusting 17 7.2
2020-Jan-20 06:54 010 12 gusting 20 7.2
2020-Jan-20 06:49 054 6 gusting 14 7.2
2020-Jan-20 06:39 020 13 gusting 24 7.2
2020-Jan-20 06:34 051 6 gusting 22 7.2
2020-Jan-20 06:29 022 13 gusting 24 7.2
2020-Jan-20 06:14 052 7 gusting 19 7.2
2020-Jan-20 06:09 035 10 gusting 22 7.2
2020-Jan-20 05:59 019 13 gusting 21 7.2
2020-Jan-20 05:54 027 10 gusting 18 7.2
2020-Jan-20 05:49 026 8 gusting 20 7.2
2020-Jan-20 05:44 034 10 gusting 21 7.2
2020-Jan-20 05:39 040 13 gusting 26 7.2
2020-Jan-20 05:34 016 12 gusting 26 7.2
2020-Jan-20 05:29 020 13 gusting 21 7.2
2020-Jan-20 05:24 007 13 gusting 22 7.2
2020-Jan-20 05:14 047 12 gusting 22 7.2
2020-Jan-20 05:04 7.2
2020-Jan-20 04:59 038 12 gusting 22 7.2
2020-Jan-20 04:54 037 15 gusting 26 7.2
2020-Jan-20 04:44 032 13 gusting 26 7.2
2020-Jan-20 04:39 024 14 gusting 30 7.2
2020-Jan-20 04:34 025 13 gusting 28 7.2
2020-Jan-20 04:29 037 14 gusting 25 7.8
2020-Jan-20 04:19 035 8 gusting 22 7.8
2020-Jan-20 04:04 026 13 gusting 22 7.8
2020-Jan-20 03:54 029 12 gusting 24 8.3
2020-Jan-20 03:49 038 14 gusting 26 8.3
2020-Jan-20 03:44 035 12 gusting 28 8.3
2020-Jan-20 03:39 029 15 gusting 26 8.3
2020-Jan-20 03:34 032 8 gusting 25 8.3
2020-Jan-20 03:29 051 9 gusting 21 8.3
2020-Jan-20 03:24 043 14 gusting 22 8.3
2020-Jan-20 03:19 052 10 gusting 19 8.3
2020-Jan-20 03:14 049 12 gusting 19 8.3
2020-Jan-20 03:09 009 15 gusting 24 8.3
2020-Jan-20 03:04 018 13 gusting 26 8.3
2020-Jan-20 02:59 348 13 gusting 26 8.3
2020-Jan-20 02:49 048 13 gusting 27 8.3
2020-Jan-20 02:44 016 12 gusting 22 8.3
2020-Jan-20 02:39 034 12 gusting 28 8.3
2020-Jan-20 02:34 043 15 gusting 26 8.3
2020-Jan-20 02:29 036 13 gusting 24 8.3
2020-Jan-20 02:24 023 12 gusting 21 8.3
2020-Jan-20 02:14 045 13 gusting 19 8.3
2020-Jan-20 02:04 026 11 gusting 20 8.3
2020-Jan-20 01:54 038 11 gusting 25 8.3
2020-Jan-20 01:49 023 13 gusting 27 8.3
2020-Jan-20 01:44 031 12 gusting 22 8.3
2020-Jan-20 01:39 051 15 gusting 27 8.3
2020-Jan-20 01:34 032 11 gusting 22 8.3
2020-Jan-20 01:29 019 9 gusting 24 8.3
2020-Jan-20 01:24 001 14 gusting 22 8.3
2020-Jan-20 01:14 002 8 gusting 20 8.3
2020-Jan-20 01:09 027 9 gusting 19 8.3
2020-Jan-20 01:04 041 4 gusting 20 8.3
2020-Jan-20 00:44 069 1 gusting 8 8.3
2020-Jan-20 00:39 044 6 gusting 17 8.3
2020-Jan-20 00:24 018 13 gusting 19 8.9
2020-Jan-20 00:19 046 10 gusting 17 8.3
2020-Jan-20 00:14 034 6 gusting 13 8.3
2020-Jan-20 00:09 051 9 gusting 27 8.3
2020-Jan-20 00:04 039 10 gusting 15 8.3
2020-Jan-19 23:59 035 10 gusting 17 8.3
2020-Jan-19 23:49 039 9 gusting 17 8.9
2020-Jan-19 23:44 023 7 gusting 15 8.9
2020-Jan-19 23:39 030 6 gusting 15 8.9
2020-Jan-19 23:34 051 6 gusting 13 8.9
2020-Jan-19 23:29 018 8 gusting 19 8.9
2020-Jan-19 23:24 057 8 gusting 19 8.9
2020-Jan-19 23:14 035 11 gusting 21 8.9
2020-Jan-19 23:04 024 13 gusting 20 8.9